sensor_id;sensor_type;location;lat;lon;timestamp;pressure;altitude;pressure_sealevel;temperature;humidity
59367;BME280;45163;47.690;11.770;2022-12-07T00:01:08;93180.72;;;-0.06;100.00
59367;BME280;45163;47.690;11.770;2022-12-07T00:03:35;93188.75;;;-0.06;100.00
59367;BME280;45163;47.690;11.770;2022-12-07T00:06:03;93181.47;;;-0.05;100.00
59367;BME280;45163;47.690;11.770;2022-12-07T00:08:30;93182.25;;;-0.05;100.00
59367;BME280;45163;47.690;11.770;2022-12-07T00:11:11;93182.66;;;-0.03;100.00
59367;BME280;45163;47.690;11.770;2022-12-07T00:13:38;93179.97;;;-0.03;100.00
59367;BME280;45163;47.690;11.770;2022-12-07T00:16:15;93181.91;;;-0.03;100.00
59367;BME280;45163;47.690;11.770;2022-12-07T00:18:42;93180.38;;;-0.04;100.00
59367;BME280;45163;47.690;11.770;2022-12-07T00:23:36;93175.38;;;-0.02;100.00
59367;BME280;45163;47.690;11.770;2022-12-07T00:26:20;93172.69;;;-0.02;100.00
59367;BME280;45163;47.690;11.770;2022-12-07T00:28:48;93179.22;;;-0.03;100.00
59367;BME280;45163;47.690;11.770;2022-12-07T00:31:16;93173.81;;;-0.07;100.00
59367;BME280;45163;47.690;11.770;2022-12-07T00:33:42;93172.31;;;-0.01;100.00
59367;BME280;45163;47.690;11.770;2022-12-07T00:36:11;93170.84;;;0.06;100.00
59367;BME280;45163;47.690;11.770;2022-12-07T00:38:38;93165.50;;;0.06;100.00
59367;BME280;45163;47.690;11.770;2022-12-07T00:41:25;93157.03;;;0.04;100.00
59367;BME280;45163;47.690;11.770;2022-12-07T00:43:52;93160.47;;;0.04;100.00
59367;BME280;45163;47.690;11.770;2022-12-07T00:46:19;93155.09;;;0.04;100.00
59367;BME280;45163;47.690;11.770;2022-12-07T00:48:47;93159.72;;;0.04;100.00
59367;BME280;45163;47.690;11.770;2022-12-07T00:51:15;93166.63;;;0.05;100.00
59367;BME280;45163;47.690;11.770;2022-12-07T00:53:41;93158.97;;;0.07;100.00
59367;BME280;45163;47.690;11.770;2022-12-07T00:56:09;93157.47;;;0.09;100.00
59367;BME280;45163;47.690;11.770;2022-12-07T00:58:35;93160.16;;;0.09;100.00
59367;BME280;45163;47.690;11.770;2022-12-07T01:01:03;93160.53;;;0.11;100.00
59367;BME280;45163;47.690;11.770;2022-12-07T01:03:29;93158.25;;;0.10;100.00
59367;BME280;45163;47.690;11.770;2022-12-07T01:05:55;93167.44;;;0.09;100.00
59367;BME280;45163;47.690;11.770;2022-12-07T01:08:23;93163.59;;;0.10;100.00
59367;BME280;45163;47.690;11.770;2022-12-07T01:10:49;93170.50;;;0.11;100.00
59367;BME280;45163;47.690;11.770;2022-12-07T01:13:22;93165.50;;;0.06;100.00
59367;BME280;45163;47.690;11.770;2022-12-07T01:15:48;93167.00;;;0.03;100.00
59367;BME280;45163;47.690;11.770;2022-12-07T01:18:14;93164.31;;;0.03;100.00
59367;BME280;45163;47.690;11.770;2022-12-07T01:20:40;93160.13;;;0.06;100.00
59367;BME280;45163;47.690;11.770;2022-12-07T01:23:06;93167.03;;;0.07;100.00
59367;BME280;45163;47.690;11.770;2022-12-07T01:25:32;93162.81;;;0.06;100.00
59367;BME280;45163;47.690;11.770;2022-12-07T01:27:58;93167.03;;;0.07;100.00
59367;BME280;45163;47.690;11.770;2022-12-07T01:30:24;93172.00;;;0.08;100.00
59367;BME280;45163;47.690;11.770;2022-12-07T01:32:50;93166.63;;;0.08;100.00
59367;BME280;45163;47.690;11.770;2022-12-07T01:35:16;93174.38;;;0.13;100.00
59367;BME280;45163;47.690;11.770;2022-12-07T01:37:42;93172.03;;;0.12;100.00
59367;BME280;45163;47.690;11.770;2022-12-07T01:40:09;93169.75;;;0.10;100.00
59367;BME280;45163;47.690;11.770;2022-12-07T01:42:35;93163.59;;;0.10;100.00
59367;BME280;45163;47.690;11.770;2022-12-07T01:48:05;93165.09;;;0.07;100.00
59367;BME280;45163;47.690;11.770;2022-12-07T01:50:33;93160.88;;;0.06;100.00
59367;BME280;45163;47.690;11.770;2022-12-07T01:53:02;93164.34;;;0.07;100.00
59367;BME280;45163;47.690;11.770;2022-12-07T01:55:29;93161.66;;;0.07;100.00
59367;BME280;45163;47.690;11.770;2022-12-07T01:57:55;93163.19;;;0.08;100.00
59367;BME280;45163;47.690;11.770;2022-12-07T02:00:22;93157.81;;;0.08;100.00
59367;BME280;45163;47.690;11.770;2022-12-07T02:02:53;93156.69;;;0.09;100.00
59367;BME280;45163;47.690;11.770;2022-12-07T02:05:22;93159.38;;;0.09;100.00
59367;BME280;45163;47.690;11.770;2022-12-07T02:07:49;93158.25;;;0.10;100.00
59367;BME280;45163;47.690;11.770;2022-12-07T02:10:25;93160.16;;;0.09;100.00
59367;BME280;45163;47.690;11.770;2022-12-07T02:12:55;93160.91;;;0.10;100.00
59367;BME280;45163;47.690;11.770;2022-12-07T02:15:28;93155.94;;;0.12;100.00
59367;BME280;45163;47.690;11.770;2022-12-07T02:18:01;93153.25;;;0.12;100.00
59367;BME280;45163;47.690;11.770;2022-12-07T02:31:30;93157.88;;;0.15;100.00
59367;BME280;45163;47.690;11.770;2022-12-07T02:34:05;93157.91;;;0.18;100.00
59367;BME280;45163;47.690;11.770;2022-12-07T02:36:39;93155.22;;;0.18;100.00
59367;BME280;45163;47.690;11.770;2022-12-07T02:39:17;93152.94;;;0.17;100.00
59367;BME280;45163;47.690;11.770;2022-12-07T02:41:52;93147.56;;;0.20;100.00
59367;BME280;45163;47.690;11.770;2022-12-07T02:44:23;93142.97;;;0.17;100.00
59367;BME280;45163;47.690;11.770;2022-12-07T02:47:05;93142.56;;;0.15;100.00
59367;BME280;45163;47.690;11.770;2022-12-07T02:49:32;93136.81;;;0.13;100.00
59367;BME280;45163;47.690;11.770;2022-12-07T02:51:58;93136.03;;;0.13;100.00
59367;BME280;45163;47.690;11.770;2022-12-07T02:54:24;93141.78;;;0.15;100.00
59367;BME280;45163;47.690;11.770;2022-12-07T03:18:25;93129.88;;;0.12;100.00
59367;BME280;45163;47.690;11.770;2022-12-07T03:20:55;93134.47;;;0.12;100.00
59367;BME280;45163;47.690;11.770;2022-12-07T03:23:23;93127.56;;;0.11;100.00
59367;BME280;45163;47.690;11.770;2022-12-07T03:25:56;93130.25;;;0.11;100.00
59367;BME280;45163;47.690;11.770;2022-12-07T03:28:27;93139.47;;;0.10;100.00
59367;BME280;45163;47.690;11.770;2022-12-07T03:30:59;93132.91;;;0.07;100.00
59367;BME280;45163;47.690;11.770;2022-12-07T03:33:36;93125.25;;;0.06;100.00
59367;BME280;45163;47.690;11.770;2022-12-07T03:36:21;93121.78;;;0.05;100.00
59367;BME280;45163;47.690;11.770;2022-12-07T03:38:55;93121.41;;;0.07;100.00
59367;BME280;45163;47.690;11.770;2022-12-07T03:41:30;93123.72;;;0.08;100.00
59367;BME280;45163;47.690;11.770;2022-12-07T03:43:57;93126.03;;;0.10;100.00
59367;BME280;45163;47.690;11.770;2022-12-07T03:57:19;93118.78;;;0.14;100.00
59367;BME280;45163;47.690;11.770;2022-12-07T03:59:46;93121.81;;;0.12;100.00
59367;BME280;45163;47.690;11.770;2022-12-07T04:02:13;93121.09;;;0.15;100.00
59367;BME280;45163;47.690;11.770;2022-12-07T04:04:41;93121.09;;;0.15;100.00
59367;BME280;45163;47.690;11.770;2022-12-07T04:07:08;93118.44;;;0.19;100.00
59367;BME280;45163;47.690;11.770;2022-12-07T04:09:34;93127.25;;;0.19;100.00
59367;BME280;45163;47.690;11.770;2022-12-07T04:12:00;93129.56;;;0.24;100.00
59367;BME280;45163;47.690;11.770;2022-12-07T04:14:26;93123.09;;;0.29;100.00
59367;BME280;45163;47.690;11.770;2022-12-07T04:16:55;93118.50;;;0.30;100.00
59367;BME280;45163;47.690;11.770;2022-12-07T04:19:26;93118.47;;;0.26;100.00
59367;BME280;45163;47.690;11.770;2022-12-07T04:21:53;93121.16;;;0.26;100.00
59367;BME280;45163;47.690;11.770;2022-12-07T04:24:20;93118.84;;;0.24;100.00
59367;BME280;45163;47.690;11.770;2022-12-07T04:26:46;93111.56;;;0.21;100.00
59367;BME280;45163;47.690;11.770;2022-12-07T04:29:13;93109.66;;;0.26;100.00
59367;BME280;45163;47.690;11.770;2022-12-07T04:31:40;93110.47;;;0.30;100.00
59367;BME280;45163;47.690;11.770;2022-12-07T04:34:07;93118.50;;;0.33;100.00
59367;BME280;45163;47.690;11.770;2022-12-07T04:36:33;93110.47;;;0.37;100.00
59367;BME280;45163;47.690;11.770;2022-12-07T04:39:00;93115.09;;;0.40;100.00
59367;BME280;45163;47.690;11.770;2022-12-07T04:41:27;93117.47;;;0.48;100.00
59367;BME280;45163;47.690;11.770;2022-12-07T04:46:20;93116.69;;;0.48;100.00
59367;BME280;45163;47.690;11.770;2022-12-07T04:48:46;93114.38;;;0.43;100.00
59367;BME280;45163;47.690;11.770;2022-12-07T04:51:12;93116.28;;;0.42;100.00
59367;BME280;45163;47.690;11.770;2022-12-07T04:53:38;93112.84;;;0.45;100.00
59367;BME280;45163;47.690;11.770;2022-12-07T04:56:04;93119.00;;;0.53;100.00
59367;BME280;45163;47.690;11.770;2022-12-07T04:58:30;93117.88;;;0.51;100.00
59367;BME280;45163;47.690;11.770;2022-12-07T05:00:56;93122.09;;;0.52;100.00
59367;BME280;45163;47.690;11.770;2022-12-07T05:03:22;93114.38;;;0.43;100.00
59367;BME280;45163;47.690;11.770;2022-12-07T05:05:48;93108.59;;;0.41;100.00
59367;BME280;45163;47.690;11.770;2022-12-07T05:08:15;93108.56;;;0.37;100.00
59367;BME280;45163;47.690;11.770;2022-12-07T05:10:41;93106.25;;;0.32;100.00
59367;BME280;45163;47.690;11.770;2022-12-07T05:13:07;93103.94;;;0.31;100.00
59367;BME280;45163;47.690;11.770;2022-12-07T05:15:33;93105.06;;;0.26;100.00
59367;BME280;45163;47.690;11.770;2022-12-07T05:17:59;93103.13;;;0.23;100.00
59367;BME280;45163;47.690;11.770;2022-12-07T05:20:25;93100.81;;;0.21;100.00
59367;BME280;45163;47.690;11.770;2022-12-07T05:22:51;93105.78;;;0.19;100.00
59367;BME280;45163;47.690;11.770;2022-12-07T05:25:17;93108.06;;;0.17;100.00
59367;BME280;45163;47.690;11.770;2022-12-07T05:27:43;93103.47;;;0.18;100.00
59367;BME280;45163;47.690;11.770;2022-12-07T05:30:09;93095.44;;;0.18;100.00
59367;BME280;45163;47.690;11.770;2022-12-07T05:32:35;93100.78;;;0.18;100.00
59367;BME280;45163;47.690;11.770;2022-12-07T05:35:01;93109.19;;;0.16;100.00
59367;BME280;45163;47.690;11.770;2022-12-07T05:37:27;93109.22;;;0.20;100.00
59367;BME280;45163;47.690;11.770;2022-12-07T05:39:53;93113.84;;;0.23;100.00
59367;BME280;45163;47.690;11.770;2022-12-07T05:42:19;93115.78;;;0.22;100.00
59367;BME280;45163;47.690;11.770;2022-12-07T05:44:46;93110.78;;;0.24;100.00
59367;BME280;45163;47.690;11.770;2022-12-07T05:47:13;93108.09;;;0.24;100.00
59367;BME280;45163;47.690;11.770;2022-12-07T05:49:39;93099.63;;;0.19;100.00
59367;BME280;45163;47.690;11.770;2022-12-07T05:52:06;93112.28;;;0.18;100.00
59367;BME280;45163;47.690;11.770;2022-12-07T05:54:33;93113.81;;;0.19;100.00
59367;BME280;45163;47.690;11.770;2022-12-07T05:56:59;93115.38;;;0.17;100.00
59367;BME280;45163;47.690;11.770;2022-12-07T05:59:25;93108.44;;;0.16;100.00
59367;BME280;45163;47.690;11.770;2022-12-07T06:02:02;93117.63;;;0.15;100.00
59367;BME280;45163;47.690;11.770;2022-12-07T06:04:31;93113.00;;;0.12;100.00
59367;BME280;45163;47.690;11.770;2022-12-07T06:06:58;93111.88;;;0.16;100.00
59367;BME280;45163;47.690;11.770;2022-12-07T06:09:25;93115.72;;;0.15;100.00
59367;BME280;45163;47.690;11.770;2022-12-07T06:11:51;93121.09;;;0.15;100.00
59367;BME280;45163;47.690;11.770;2022-12-07T06:14:36;93124.91;;;0.14;100.00
59367;BME280;45163;47.690;11.770;2022-12-07T06:17:02;93117.63;;;0.15;100.00
59367;BME280;45163;47.690;11.770;2022-12-07T06:19:29;93112.66;;;0.13;100.00
59367;BME280;45163;47.690;11.770;2022-12-07T06:21:55;93116.44;;;0.12;100.00
59367;BME280;45163;47.690;11.770;2022-12-07T06:24:21;93123.75;;;0.12;100.00
59367;BME280;45163;47.690;11.770;2022-12-07T06:26:47;93126.41;;;0.12;100.00
59367;BME280;45163;47.690;11.770;2022-12-07T06:29:14;93130.28;;;0.14;100.00
59367;BME280;45163;47.690;11.770;2022-12-07T06:31:40;93139.47;;;0.13;100.00
59367;BME280;45163;47.690;11.770;2022-12-07T06:34:12;93136.03;;;0.13;100.00
59367;BME280;45163;47.690;11.770;2022-12-07T06:36:41;93141.03;;;0.14;100.00
59367;BME280;45163;47.690;11.770;2022-12-07T06:39:07;93142.53;;;0.12;100.00
59367;BME280;45163;47.690;11.770;2022-12-07T06:41:38;93146.38;;;0.14;100.00
59367;BME280;45163;47.690;11.770;2022-12-07T06:44:05;93151.38;;;0.16;100.00
59367;BME280;45163;47.690;11.770;2022-12-07T06:46:32;93147.91;;;0.15;100.00
59367;BME280;45163;47.690;11.770;2022-12-07T06:48:58;93149.84;;;0.15;100.00
59367;BME280;45163;47.690;11.770;2022-12-07T06:51:24;93148.34;;;0.17;100.00
59367;BME280;45163;47.690;11.770;2022-12-07T06:53:50;93162.56;;;0.25;100.00
59367;BME280;45163;47.690;11.770;2022-12-07T06:56:16;93145.03;;;0.38;100.00
59367;BME280;45163;47.690;11.770;2022-12-07T06:58:42;93147.31;;;0.40;100.00
59367;BME280;45163;47.690;11.770;2022-12-07T07:01:13;93139.28;;;0.40;100.00
59367;BME280;45163;47.690;11.770;2022-12-07T07:03:39;93142.66;;;0.33;100.00
59367;BME280;45163;47.690;11.770;2022-12-07T07:06:06;93157.63;;;0.31;100.00
59367;BME280;45163;47.690;11.770;2022-12-07T07:08:34;93154.53;;;0.29;100.00
59367;BME280;45163;47.690;11.770;2022-12-07T07:11:00;93158.34;;;0.28;100.00
59367;BME280;45163;47.690;11.770;2022-12-07T07:13:27;93153.72;;;0.24;100.00
59367;BME280;45163;47.690;11.770;2022-12-07T07:15:53;93169.09;;;0.28;100.00
59367;BME280;45163;47.690;11.770;2022-12-07T07:18:19;93171.00;;;0.27;100.00
59367;BME280;45163;47.690;11.770;2022-12-07T07:20:45;93172.59;;;0.32;100.00
59367;BME280;45163;47.690;11.770;2022-12-07T07:23:11;93174.50;;;0.31;100.00
59367;BME280;45163;47.690;11.770;2022-12-07T07:25:37;93175.69;;;0.37;100.00
59367;BME280;45163;47.690;11.770;2022-12-07T07:28:03;93176.06;;;0.36;100.00
59367;BME280;45163;47.690;11.770;2022-12-07T07:30:29;93171.75;;;0.24;100.00
59367;BME280;45163;47.690;11.770;2022-12-07T07:33:02;93182.03;;;0.15;100.00
59367;BME280;45163;47.690;11.770;2022-12-07T07:35:30;93174.69;;;0.05;100.00
59367;BME280;45163;47.690;11.770;2022-12-07T07:37:56;93176.88;;;-0.05;100.00
59367;BME280;45163;47.690;11.770;2022-12-07T07:40:22;93181.44;;;-0.12;100.00
59367;BME280;45163;47.690;11.770;2022-12-07T07:42:50;93180.25;;;-0.15;100.00
59367;BME280;45163;47.690;11.770;2022-12-07T07:45:17;93192.09;;;-0.19;100.00
59367;BME280;45163;47.690;11.770;2022-12-07T07:47:43;93189.75;;;-0.21;100.00
59367;BME280;45163;47.690;11.770;2022-12-07T07:50:09;93192.78;;;-0.26;100.00
59367;BME280;45163;47.690;11.770;2022-12-07T07:52:35;93191.66;;;-0.25;100.00
59367;BME280;45163;47.690;11.770;2022-12-07T07:55:01;93182.88;;;-0.22;100.00
59367;BME280;45163;47.690;11.770;2022-12-07T07:57:28;93193.56;;;-0.26;100.00
59367;BME280;45163;47.690;11.770;2022-12-07T07:59:54;93193.59;;;-0.22;100.00
59367;BME280;45163;47.690;11.770;2022-12-07T08:02:20;93195.13;;;-0.24;100.00
59367;BME280;45163;47.690;11.770;2022-12-07T08:04:47;93200.50;;;-0.21;100.00
59367;BME280;45163;47.690;11.770;2022-12-07T08:07:14;93203.59;;;-0.19;100.00
59367;BME280;45163;47.690;11.770;2022-12-07T08:09:40;93210.50;;;-0.18;100.00
59367;BME280;45163;47.690;11.770;2022-12-07T08:12:07;93215.81;;;-0.25;100.00
59367;BME280;45163;47.690;11.770;2022-12-07T08:14:33;93217.72;;;-0.22;100.00
59367;BME280;45163;47.690;11.770;2022-12-07T08:17:00;93220.78;;;-0.23;100.00
59367;BME280;45163;47.690;11.770;2022-12-07T08:19:26;93220.41;;;-0.22;100.00
59367;BME280;45163;47.690;11.770;2022-12-07T08:21:52;93218.84;;;-0.27;100.00
59367;BME280;45163;47.690;11.770;2022-12-07T08:24:18;93222.72;;;-0.24;100.00
59367;BME280;45163;47.690;11.770;2022-12-07T08:26:44;93225.34;;;-0.28;100.00
59367;BME280;45163;47.690;11.770;2022-12-07T08:29:10;93225.38;;;-0.24;100.00
59367;BME280;45163;47.690;11.770;2022-12-07T08:31:36;93223.06;;;-0.26;100.00
59367;BME280;45163;47.690;11.770;2022-12-07T08:34:02;93225.00;;;-0.22;100.00
59367;BME280;45163;47.690;11.770;2022-12-07T08:36:28;93220.84;;;-0.20;100.00
59367;BME280;45163;47.690;11.770;2022-12-07T08:38:54;93227.78;;;-0.15;100.00
59367;BME280;45163;47.690;11.770;2022-12-07T08:41:20;93232.03;;;-0.11;100.00
59367;BME280;45163;47.690;11.770;2022-12-07T08:43:46;93232.41;;;-0.09;100.00
59367;BME280;45163;47.690;11.770;2022-12-07T08:49:10;93228.63;;;-0.08;100.00
59367;BME280;45163;47.690;11.770;2022-12-07T08:51:38;93230.56;;;-0.01;100.00
59367;BME280;45163;47.690;11.770;2022-12-07T08:54:07;93224.44;;;-0.02;100.00
59367;BME280;45163;47.690;11.770;2022-12-07T08:56:34;93230.66;;;0.06;100.00
59367;BME280;45163;47.690;11.770;2022-12-07T08:59:01;93235.28;;;0.09;100.00
59367;BME280;45163;47.690;11.770;2022-12-07T09:01:28;93228.47;;;0.19;100.00
59367;BME280;45163;47.690;11.770;2022-12-07T09:03:54;93232.63;;;0.13;100.00
59367;BME280;45163;47.690;11.770;2022-12-07T09:06:20;93236.47;;;0.15;100.00
59367;BME280;45163;47.690;11.770;2022-12-07T09:08:48;93230.75;;;0.17;100.00
59367;BME280;45163;47.690;11.770;2022-12-07T09:11:15;93232.28;;;0.18;100.00
59367;BME280;45163;47.690;11.770;2022-12-07T09:13:41;93233.47;;;0.24;100.00
59367;BME280;45163;47.690;11.770;2022-12-07T09:16:07;93233.13;;;0.26;100.00
59367;BME280;45163;47.690;11.770;2022-12-07T09:18:33;93234.97;;;0.18;100.00
59367;BME280;45163;47.690;11.770;2022-12-07T09:20:59;93237.28;;;0.19;100.00
59367;BME280;45163;47.690;11.770;2022-12-07T09:23:25;93238.84;;;0.24;100.00
59367;BME280;45163;47.690;11.770;2022-12-07T09:25:51;93235.44;;;0.27;100.00
59367;BME280;45163;47.690;11.770;2022-12-07T09:28:17;93234.66;;;0.27;100.00
59367;BME280;45163;47.690;11.770;2022-12-07T09:30:47;93233.47;;;0.24;100.00
59367;BME280;45163;47.690;11.770;2022-12-07T09:33:14;93228.53;;;0.26;100.00
59367;BME280;45163;47.690;11.770;2022-12-07T09:35:46;93227.78;;;0.29;100.00
59367;BME280;45163;47.690;11.770;2022-12-07T09:38:13;93218.22;;;0.32;100.00
59367;BME280;45163;47.690;11.770;2022-12-07T09:40:40;93214.72;;;0.28;100.00
59367;BME280;45163;47.690;11.770;2022-12-07T09:43:13;93218.56;;;0.27;100.00
59367;BME280;45163;47.690;11.770;2022-12-07T09:45:40;93214.72;;;0.28;100.00
59367;BME280;45163;47.690;11.770;2022-12-07T09:48:18;93213.66;;;0.36;100.00
59367;BME280;45163;47.690;11.770;2022-12-07T09:50:46;93212.13;;;0.35;100.00
59367;BME280;45163;47.690;11.770;2022-12-07T09:53:19;93212.81;;;0.28;100.00
59367;BME280;45163;47.690;11.770;2022-12-07T09:55:46;93210.94;;;0.32;100.00
59367;BME280;45163;47.690;11.770;2022-12-07T09:58:20;93209.41;;;0.31;100.00
59367;BME280;45163;47.690;11.770;2022-12-07T10:00:48;93204.84;;;0.39;100.00
59367;BME280;45163;47.690;11.770;2022-12-07T10:03:15;93207.88;;;0.34;100.00
59367;BME280;45163;47.690;11.770;2022-12-07T10:05:45;93201.00;;;0.36;100.00
59367;BME280;45163;47.690;11.770;2022-12-07T10:08:13;93199.84;;;0.34;100.00
59367;BME280;45163;47.690;11.770;2022-12-07T10:10:39;93196.34;;;0.33;100.00
59367;BME280;45163;47.690;11.770;2022-12-07T10:13:15;93198.66;;;0.31;100.00
59367;BME280;45163;47.690;11.770;2022-12-07T10:24:08;93193.91;;;0.14;100.00
59367;BME280;45163;47.690;11.770;2022-12-07T10:26:51;93194.31;;;0.16;100.00
59367;BME280;45163;47.690;11.770;2022-12-07T10:34:30;93183.16;;;0.10;100.00
59367;BME280;45163;47.690;11.770;2022-12-07T10:42:22;93179.41;;;0.22;100.00
59367;BME280;45163;47.690;11.770;2022-12-07T10:44:50;93180.22;;;0.26;100.00
59367;BME280;45163;47.690;11.770;2022-12-07T10:47:39;93175.19;;;0.24;100.00
59367;BME280;45163;47.690;11.770;2022-12-07T10:56:04;93171.47;;;0.36;100.00
59367;BME280;45163;47.690;11.770;2022-12-07T10:58:47;93176.81;;;0.36;100.00
59367;BME280;45163;47.690;11.770;2022-12-07T11:01:41;93178.38;;;0.34;100.00
59367;BME280;45163;47.690;11.770;2022-12-07T11:04:24;93163.06;;;0.41;100.00
59367;BME280;45163;47.690;11.770;2022-12-07T11:06:57;93175.72;;;0.41;100.00
59367;BME280;45163;47.690;11.770;2022-12-07T11:20:43;93153.19;;;0.56;100.00
59367;BME280;45163;47.690;11.770;2022-12-07T11:34:25;93124.78;;;0.52;100.00
59367;BME280;45163;47.690;11.770;2022-12-07T11:36:56;93124.34;;;0.46;100.00
59367;BME280;45163;47.690;11.770;2022-12-07T11:39:31;93124.00;;;0.51;100.00
59367;BME280;45163;47.690;11.770;2022-12-07T11:42:26;93120.88;;;0.45;100.00
59367;BME280;45163;47.690;11.770;2022-12-07T11:45:26;93125.16;;;0.54;100.00
59367;BME280;45163;47.690;11.770;2022-12-07T11:53:19;93108.34;;;0.64;100.00
59367;BME280;45163;47.690;11.770;2022-12-07T12:04:34;93094.91;;;0.64;100.00
59367;BME280;45163;47.690;11.770;2022-12-07T12:07:07;93094.56;;;0.69;100.00
59367;BME280;45163;47.690;11.770;2022-12-07T12:10:06;93078.41;;;0.62;100.00
59367;BME280;45163;47.690;11.770;2022-12-07T12:21:04;93070.69;;;0.53;100.00
59367;BME280;45163;47.690;11.770;2022-12-07T12:23:45;93063.78;;;0.52;100.00
59367;BME280;45163;47.690;11.770;2022-12-07T12:26:18;93068.03;;;0.60;100.00
59367;BME280;45163;47.690;11.770;2022-12-07T12:28:55;93061.91;;;0.60;100.00
59367;BME280;45163;47.690;11.770;2022-12-07T12:33:56;93063.06;;;0.66;100.00
59367;BME280;45163;47.690;11.770;2022-12-07T12:36:26;93062.66;;;0.60;100.00
59367;BME280;45163;47.690;11.770;2022-12-07T12:41:54;93060.38;;;0.66;100.00
59367;BME280;45163;47.690;11.770;2022-12-07T12:54:59;93066.94;;;0.68;100.00
59367;BME280;45163;47.690;11.770;2022-12-07T12:57:31;93070.41;;;0.72;100.00
59367;BME280;45163;47.690;11.770;2022-12-07T12:59:58;93056.56;;;0.74;100.00
59367;BME280;45163;47.690;11.770;2022-12-07T13:20:51;93037.88;;;1.17;100.00
59367;BME280;45163;47.690;11.770;2022-12-07T13:23:21;93037.88;;;1.17;100.00
59367;BME280;45163;47.690;11.770;2022-12-07T13:25:54;93034.06;;;1.18;100.00
59367;BME280;45163;47.690;11.770;2022-12-07T13:28:25;93034.44;;;1.16;100.00
59367;BME280;45163;47.690;11.770;2022-12-07T13:31:08;93036.34;;;1.19;100.00
59367;BME280;45163;47.690;11.770;2022-12-07T13:33:37;93027.53;;;1.22;100.00
59367;BME280;45163;47.690;11.770;2022-12-07T13:36:03;93037.13;;;1.20;100.00
59367;BME280;45163;47.690;11.770;2022-12-07T13:38:32;93036.75;;;1.14;100.00
59367;BME280;45163;47.690;11.770;2022-12-07T13:43:30;93038.63;;;1.07;100.00
59367;BME280;45163;47.690;11.770;2022-12-07T13:45:58;93025.94;;;1.04;100.00
59367;BME280;45163;47.690;11.770;2022-12-07T13:48:43;93027.50;;;1.01;100.00
59367;BME280;45163;47.690;11.770;2022-12-07T13:51:26;93032.47;;;0.99;100.00
59367;BME280;45163;47.690;11.770;2022-12-07T13:53:57;93029.41;;;0.97;100.00
59367;BME280;45163;47.690;11.770;2022-12-07T13:56:33;93030.16;;;0.94;100.00
59367;BME280;45163;47.690;11.770;2022-12-07T13:59:00;93024.03;;;0.97;100.00
59367;BME280;45163;47.690;11.770;2022-12-07T14:01:29;93025.94;;;0.93;100.00
59367;BME280;45163;47.690;11.770;2022-12-07T14:04:37;93029.00;;;0.91;100.00
59367;BME280;45163;47.690;11.770;2022-12-07T14:07:22;93024.38;;;0.92;100.00
59367;BME280;45163;47.690;11.770;2022-12-07T14:09:56;93020.16;;;0.87;100.00
59367;BME280;45163;47.690;11.770;2022-12-07T14:12:23;93020.16;;;0.87;100.00
59367;BME280;45163;47.690;11.770;2022-12-07T14:14:50;93019.00;;;0.85;100.00
59367;BME280;45163;47.690;11.770;2022-12-07T14:17:20;93023.97;;;0.76;100.00
59367;BME280;45163;47.690;11.770;2022-12-07T14:19:52;93030.50;;;0.78;100.00
59367;BME280;45163;47.690;11.770;2022-12-07T14:22:36;93025.50;;;0.73;100.00
59367;BME280;45163;47.690;11.770;2022-12-07T14:25:25;93023.19;;;0.75;100.00
59367;BME280;45163;47.690;11.770;2022-12-07T14:27:59;93032.41;;;0.78;100.00
59367;BME280;45163;47.690;11.770;2022-12-07T14:30:29;93028.56;;;0.71;100.00
59367;BME280;45163;47.690;11.770;2022-12-07T14:33:03;93020.50;;;0.71;100.00
59367;BME280;45163;47.690;11.770;2022-12-07T14:35:31;93023.56;;;0.70;100.00
59367;BME280;45163;47.690;11.770;2022-12-07T14:37:58;93017.38;;;0.62;100.00
59367;BME280;45163;47.690;11.770;2022-12-07T14:40:27;93015.84;;;0.61;100.00
59367;BME280;45163;47.690;11.770;2022-12-07T14:43:00;93016.25;;;0.60;100.00
59367;BME280;45163;47.690;11.770;2022-12-07T14:45:27;93015.13;;;0.68;100.00
59367;BME280;45163;47.690;11.770;2022-12-07T14:47:53;93015.88;;;0.68;100.00
59367;BME280;45163;47.690;11.770;2022-12-07T14:50:21;93013.97;;;0.69;100.00
59367;BME280;45163;47.690;11.770;2022-12-07T14:52:55;93004.38;;;0.64;100.00
59367;BME280;45163;47.690;11.770;2022-12-07T14:55:30;93009.72;;;0.61;100.00
59367;BME280;45163;47.690;11.770;2022-12-07T14:57:56;93008.16;;;0.53;100.00
59367;BME280;45163;47.690;11.770;2022-12-07T15:00:23;93018.53;;;0.51;100.00
59367;BME280;45163;47.690;11.770;2022-12-07T15:02:50;93013.53;;;0.53;100.00
59367;BME280;45163;47.690;11.770;2022-12-07T15:05:17;93015.06;;;0.46;100.00
59367;BME280;45163;47.690;11.770;2022-12-07T15:07:45;93017.75;;;0.46;100.00
59367;BME280;45163;47.690;11.770;2022-12-07T15:10:26;93022.31;;;0.42;100.00
59367;BME280;45163;47.690;11.770;2022-12-07T15:12:58;93023.44;;;0.41;100.00
59367;BME280;45163;47.690;11.770;2022-12-07T15:15:44;93016.16;;;0.38;100.00
59367;BME280;45163;47.690;11.770;2022-12-07T15:18:10;93016.53;;;0.37;100.00
59367;BME280;45163;47.690;11.770;2022-12-07T15:20:36;93018.41;;;0.33;100.00
59367;BME280;45163;47.690;11.770;2022-12-07T15:23:01;93016.09;;;0.28;100.00
59367;BME280;45163;47.690;11.770;2022-12-07T15:25:27;93020.72;;;0.27;100.00
59367;BME280;45163;47.690;11.770;2022-12-07T15:27:54;93017.25;;;0.27;100.00
59367;BME280;45163;47.690;11.770;2022-12-07T15:30:19;93011.47;;;0.24;100.00
59367;BME280;45163;47.690;11.770;2022-12-07T15:32:52;93019.91;;;0.23;100.00
59367;BME280;45163;47.690;11.770;2022-12-07T15:35:19;93013.78;;;0.22;100.00
59367;BME280;45163;47.690;11.770;2022-12-07T15:37:45;93012.59;;;0.20;100.00
59367;BME280;45163;47.690;11.770;2022-12-07T15:40:12;93007.63;;;0.18;100.00